sensor_id;sensor_type;location;lat;lon;timestamp;P1;durP1;ratioP1;P2;durP2;ratioP2
5630;SDS011;2837;50.990;7.124;2023-05-09T05:01:43;163.73;;;16.47;;
5630;SDS011;2837;50.990;7.124;2023-05-09T05:04:08;166.20;;;16.00;;
5630;SDS011;2837;50.990;7.124;2023-05-09T05:06:34;161.00;;;15.63;;
5630;SDS011;2837;50.990;7.124;2023-05-09T05:09:00;163.90;;;17.53;;
5630;SDS011;2837;50.990;7.124;2023-05-09T05:11:25;163.60;;;16.10;;
5630;SDS011;2837;50.990;7.124;2023-05-09T05:13:51;161.07;;;16.60;;
5630;SDS011;2837;50.990;7.124;2023-05-09T05:16:16;169.60;;;17.57;;
5630;SDS011;2837;50.990;7.124;2023-05-09T05:18:42;163.40;;;16.37;;
5630;SDS011;2837;50.990;7.124;2023-05-09T05:21:07;160.97;;;15.80;;
5630;SDS011;2837;50.990;7.124;2023-05-09T05:23:33;161.60;;;16.50;;
5630;SDS011;2837;50.990;7.124;2023-05-09T05:25:58;161.00;;;16.07;;
5630;SDS011;2837;50.990;7.124;2023-05-09T05:28:24;160.63;;;16.30;;
5630;SDS011;2837;50.990;7.124;2023-05-09T05:30:49;165.00;;;16.67;;
5630;SDS011;2837;50.990;7.124;2023-05-09T05:33:15;161.17;;;16.47;;
5630;SDS011;2837;50.990;7.124;2023-05-09T05:35:40;163.13;;;16.47;;
5630;SDS011;2837;50.990;7.124;2023-05-09T05:38:06;160.97;;;17.00;;
5630;SDS011;2837;50.990;7.124;2023-05-09T05:40:31;165.40;;;18.07;;
5630;SDS011;2837;50.990;7.124;2023-05-09T05:42:57;162.93;;;16.77;;
5630;SDS011;2837;50.990;7.124;2023-05-09T05:45:23;161.47;;;16.23;;
5630;SDS011;2837;50.990;7.124;2023-05-09T05:47:48;161.70;;;16.67;;
5630;SDS011;2837;50.990;7.124;2023-05-09T05:50:14;160.47;;;15.93;;
5630;SDS011;2837;50.990;7.124;2023-05-09T05:52:39;159.90;;;15.70;;
5630;SDS011;2837;50.990;7.124;2023-05-09T05:55:05;168.47;;;17.30;;
5630;SDS011;2837;50.990;7.124;2023-05-09T05:57:32;160.47;;;15.80;;
5630;SDS011;2837;50.990;7.124;2023-05-09T05:59:59;165.60;;;17.40;;
5630;SDS011;2837;50.990;7.124;2023-05-09T06:02:25;159.90;;;15.97;;
5630;SDS011;2837;50.990;7.124;2023-05-09T06:04:50;163.50;;;16.47;;
5630;SDS011;2837;50.990;7.124;2023-05-09T06:07:16;160.43;;;17.47;;
5630;SDS011;2837;50.990;7.124;2023-05-09T06:09:41;160.37;;;15.40;;
5630;SDS011;2837;50.990;7.124;2023-05-09T06:12:07;160.37;;;16.23;;
5630;SDS011;2837;50.990;7.124;2023-05-09T06:14:33;162.77;;;16.73;;
5630;SDS011;2837;50.990;7.124;2023-05-09T06:16:58;161.77;;;17.00;;
5630;SDS011;2837;50.990;7.124;2023-05-09T06:19:24;161.40;;;16.87;;
5630;SDS011;2837;50.990;7.124;2023-05-09T06:21:50;164.90;;;17.90;;
5630;SDS011;2837;50.990;7.124;2023-05-09T06:24:15;163.00;;;15.53;;
5630;SDS011;2837;50.990;7.124;2023-05-09T06:26:41;163.37;;;15.97;;
5630;SDS011;2837;50.990;7.124;2023-05-09T06:29:06;161.90;;;17.50;;
5630;SDS011;2837;50.990;7.124;2023-05-09T06:31:32;158.77;;;16.00;;
5630;SDS011;2837;50.990;7.124;2023-05-09T06:34:05;164.17;;;17.90;;
5630;SDS011;2837;50.990;7.124;2023-05-09T06:36:31;160.33;;;16.77;;
5630;SDS011;2837;50.990;7.124;2023-05-09T06:38:58;160.77;;;16.50;;
5630;SDS011;2837;50.990;7.124;2023-05-09T06:41:24;163.97;;;18.03;;
5630;SDS011;2837;50.990;7.124;2023-05-09T06:43:50;160.93;;;16.90;;
5630;SDS011;2837;50.990;7.124;2023-05-09T06:46:16;159.93;;;16.80;;
5630;SDS011;2837;50.990;7.124;2023-05-09T06:48:42;159.77;;;17.00;;
5630;SDS011;2837;50.990;7.124;2023-05-09T06:51:07;161.87;;;16.60;;
5630;SDS011;2837;50.990;7.124;2023-05-09T06:53:33;160.97;;;16.20;;
5630;SDS011;2837;50.990;7.124;2023-05-09T06:55:59;160.27;;;15.90;;
5630;SDS011;2837;50.990;7.124;2023-05-09T06:58:25;159.87;;;15.50;;
5630;SDS011;2837;50.990;7.124;2023-05-09T07:00:51;159.57;;;15.57;;
5630;SDS011;2837;50.990;7.124;2023-05-09T07:03:17;158.80;;;16.50;;
5630;SDS011;2837;50.990;7.124;2023-05-09T07:05:43;161.80;;;17.37;;
5630;SDS011;2837;50.990;7.124;2023-05-09T07:08:08;159.03;;;16.47;;
5630;SDS011;2837;50.990;7.124;2023-05-09T07:10:34;160.20;;;16.00;;
5630;SDS011;2837;50.990;7.124;2023-05-09T07:13:00;159.27;;;15.67;;
5630;SDS011;2837;50.990;7.124;2023-05-09T07:15:25;157.47;;;15.17;;
5630;SDS011;2837;50.990;7.124;2023-05-09T07:17:51;159.10;;;15.97;;
5630;SDS011;2837;50.990;7.124;2023-05-09T07:20:17;156.90;;;15.10;;
5630;SDS011;2837;50.990;7.124;2023-05-09T07:22:42;159.60;;;16.87;;
5630;SDS011;2837;50.990;7.124;2023-05-09T07:25:08;159.87;;;16.63;;
5630;SDS011;2837;50.990;7.124;2023-05-09T07:27:34;160.20;;;16.43;;
5630;SDS011;2837;50.990;7.124;2023-05-09T07:30:01;161.17;;;16.30;;
5630;SDS011;2837;50.990;7.124;2023-05-09T07:32:27;157.57;;;15.97;;
5630;SDS011;2837;50.990;7.124;2023-05-09T07:34:53;159.70;;;15.30;;
5630;SDS011;2837;50.990;7.124;2023-05-09T07:37:19;155.10;;;14.00;;
5630;SDS011;2837;50.990;7.124;2023-05-09T07:39:44;156.27;;;14.60;;
5630;SDS011;2837;50.990;7.124;2023-05-09T07:42:11;156.67;;;14.90;;
5630;SDS011;2837;50.990;7.124;2023-05-09T07:44:37;156.27;;;14.90;;
5630;SDS011;2837;50.990;7.124;2023-05-09T07:47:03;154.10;;;13.50;;
5630;SDS011;2837;50.990;7.124;2023-05-09T07:49:33;157.77;;;12.63;;
5630;SDS011;2837;50.990;7.124;2023-05-09T07:51:58;153.73;;;13.30;;
5630;SDS011;2837;50.990;7.124;2023-05-09T07:54:24;156.47;;;13.70;;
5630;SDS011;2837;50.990;7.124;2023-05-09T07:56:50;154.23;;;13.27;;
5630;SDS011;2837;50.990;7.124;2023-05-09T07:59:16;154.43;;;13.97;;
5630;SDS011;2837;50.990;7.124;2023-05-09T08:01:42;155.07;;;14.20;;
5630;SDS011;2837;50.990;7.124;2023-05-09T08:04:08;156.23;;;12.83;;
5630;SDS011;2837;50.990;7.124;2023-05-09T08:06:34;154.77;;;13.27;;
5630;SDS011;2837;50.990;7.124;2023-05-09T08:08:59;156.10;;;13.93;;
5630;SDS011;2837;50.990;7.124;2023-05-09T08:11:25;153.87;;;12.83;;
5630;SDS011;2837;50.990;7.124;2023-05-09T08:13:51;155.43;;;13.80;;
5630;SDS011;2837;50.990;7.124;2023-05-09T08:16:17;152.97;;;13.17;;
5630;SDS011;2837;50.990;7.124;2023-05-09T08:18:43;151.87;;;13.10;;
5630;SDS011;2837;50.990;7.124;2023-05-09T08:21:09;152.60;;;12.97;;
5630;SDS011;2837;50.990;7.124;2023-05-09T08:23:34;153.67;;;13.10;;
5630;SDS011;2837;50.990;7.124;2023-05-09T08:26:00;152.90;;;12.70;;
5630;SDS011;2837;50.990;7.124;2023-05-09T08:28:25;151.93;;;11.80;;
5630;SDS011;2837;50.990;7.124;2023-05-09T08:30:52;154.17;;;12.90;;
5630;SDS011;2837;50.990;7.124;2023-05-09T08:33:18;153.40;;;12.83;;
5630;SDS011;2837;50.990;7.124;2023-05-09T08:35:44;153.90;;;13.50;;
5630;SDS011;2837;50.990;7.124;2023-05-09T08:38:14;151.87;;;12.80;;
5630;SDS011;2837;50.990;7.124;2023-05-09T08:40:39;153.77;;;12.93;;
5630;SDS011;2837;50.990;7.124;2023-05-09T08:43:05;152.27;;;12.20;;
5630;SDS011;2837;50.990;7.124;2023-05-09T08:45:33;152.50;;;12.77;;
5630;SDS011;2837;50.990;7.124;2023-05-09T08:48:04;152.57;;;12.30;;
5630;SDS011;2837;50.990;7.124;2023-05-09T08:50:31;151.40;;;12.07;;
5630;SDS011;2837;50.990;7.124;2023-05-09T08:52:56;151.70;;;11.30;;
5630;SDS011;2837;50.990;7.124;2023-05-09T08:55:22;151.90;;;11.10;;
5630;SDS011;2837;50.990;7.124;2023-05-09T08:57:49;151.27;;;12.50;;
5630;SDS011;2837;50.990;7.124;2023-05-09T09:00:16;153.90;;;12.37;;
5630;SDS011;2837;50.990;7.124;2023-05-09T09:02:44;151.90;;;12.23;;
5630;SDS011;2837;50.990;7.124;2023-05-09T09:05:09;150.70;;;11.30;;
5630;SDS011;2837;50.990;7.124;2023-05-09T09:07:35;151.40;;;11.90;;
5630;SDS011;2837;50.990;7.124;2023-05-09T09:10:02;153.50;;;12.10;;
5630;SDS011;2837;50.990;7.124;2023-05-09T09:12:28;151.47;;;11.80;;
5630;SDS011;2837;50.990;7.124;2023-05-09T09:14:55;150.57;;;10.37;;
5630;SDS011;2837;50.990;7.124;2023-05-09T09:17:26;152.87;;;11.97;;
5630;SDS011;2837;50.990;7.124;2023-05-09T09:19:54;151.03;;;11.30;;
5630;SDS011;2837;50.990;7.124;2023-05-09T09:22:24;150.93;;;11.37;;
5630;SDS011;2837;50.990;7.124;2023-05-09T09:24:57;149.63;;;10.37;;
5630;SDS011;2837;50.990;7.124;2023-05-09T09:27:23;152.10;;;11.20;;
5630;SDS011;2837;50.990;7.124;2023-05-09T09:29:49;150.17;;;10.23;;
5630;SDS011;2837;50.990;7.124;2023-05-09T09:32:14;150.80;;;11.27;;
5630;SDS011;2837;50.990;7.124;2023-05-09T09:34:42;151.20;;;11.77;;
5630;SDS011;2837;50.990;7.124;2023-05-09T09:37:07;149.47;;;10.30;;
5630;SDS011;2837;50.990;7.124;2023-05-09T09:39:33;151.37;;;10.53;;
5630;SDS011;2837;50.990;7.124;2023-05-09T09:42:08;149.87;;;10.20;;
5630;SDS011;2837;50.990;7.124;2023-05-09T09:44:37;149.57;;;10.47;;
5630;SDS011;2837;50.990;7.124;2023-05-09T09:47:02;150.90;;;10.87;;
5630;SDS011;2837;50.990;7.124;2023-05-09T09:49:28;151.87;;;11.80;;
5630;SDS011;2837;50.990;7.124;2023-05-09T09:51:54;151.47;;;10.80;;
5630;SDS011;2837;50.990;7.124;2023-05-09T09:54:21;150.27;;;11.43;;
5630;SDS011;2837;50.990;7.124;2023-05-09T09:56:50;150.40;;;10.33;;
5630;SDS011;2837;50.990;7.124;2023-05-09T09:59:21;150.27;;;10.60;;
5630;SDS011;2837;50.990;7.124;2023-05-09T10:04:31;150.97;;;10.20;;
5630;SDS011;2837;50.990;7.124;2023-05-09T10:07:01;151.10;;;11.37;;
5630;SDS011;2837;50.990;7.124;2023-05-09T10:09:32;150.43;;;10.20;;
5630;SDS011;2837;50.990;7.124;2023-05-09T10:12:02;150.57;;;11.03;;
5630;SDS011;2837;50.990;7.124;2023-05-09T10:14:30;149.87;;;10.93;;
5630;SDS011;2837;50.990;7.124;2023-05-09T10:16:57;149.87;;;11.40;;
5630;SDS011;2837;50.990;7.124;2023-05-09T10:19:26;151.30;;;10.20;;
5630;SDS011;2837;50.990;7.124;2023-05-09T10:22:12;149.17;;;10.00;;
5630;SDS011;2837;50.990;7.124;2023-05-09T10:25:01;149.70;;;10.27;;
5630;SDS011;2837;50.990;7.124;2023-05-09T10:27:45;149.83;;;10.27;;
5630;SDS011;2837;50.990;7.124;2023-05-09T10:30:18;148.77;;;9.60;;
5630;SDS011;2837;50.990;7.124;2023-05-09T10:32:51;149.60;;;10.23;;
5630;SDS011;2837;50.990;7.124;2023-05-09T10:35:23;150.07;;;10.00;;
5630;SDS011;2837;50.990;7.124;2023-05-09T10:37:52;148.07;;;9.20;;
5630;SDS011;2837;50.990;7.124;2023-05-09T10:40:23;148.80;;;9.57;;
5630;SDS011;2837;50.990;7.124;2023-05-09T10:42:49;149.17;;;9.60;;
5630;SDS011;2837;50.990;7.124;2023-05-09T10:45:14;148.63;;;9.33;;
5630;SDS011;2837;50.990;7.124;2023-05-09T10:47:41;149.37;;;9.60;;
5630;SDS011;2837;50.990;7.124;2023-05-09T10:50:09;148.23;;;9.57;;
5630;SDS011;2837;50.990;7.124;2023-05-09T10:58:35;152.20;;;9.00;;
5630;SDS011;2837;50.990;7.124;2023-05-09T11:01:04;149.73;;;9.83;;
5630;SDS011;2837;50.990;7.124;2023-05-09T11:12:11;149.67;;;10.43;;
5630;SDS011;2837;50.990;7.124;2023-05-09T11:14:39;150.30;;;10.17;;
5630;SDS011;2837;50.990;7.124;2023-05-09T11:24:49;149.47;;;10.77;;
5630;SDS011;2837;50.990;7.124;2023-05-09T11:27:18;152.00;;;11.10;;
5630;SDS011;2837;50.990;7.124;2023-05-09T11:29:49;156.90;;;11.97;;
5630;SDS011;2837;50.990;7.124;2023-05-09T11:32:16;151.00;;;11.20;;
5630;SDS011;2837;50.990;7.124;2023-05-09T11:34:42;149.63;;;10.40;;
5630;SDS011;2837;50.990;7.124;2023-05-09T11:37:09;156.53;;;10.80;;
5630;SDS011;2837;50.990;7.124;2023-05-09T11:39:58;154.87;;;11.13;;
5630;SDS011;2837;50.990;7.124;2023-05-09T11:42:24;149.00;;;10.37;;
5630;SDS011;2837;50.990;7.124;2023-05-09T11:44:52;148.57;;;10.27;;
5630;SDS011;2837;50.990;7.124;2023-05-09T11:47:18;149.27;;;10.13;;
5630;SDS011;2837;50.990;7.124;2023-05-09T11:49:45;148.07;;;9.40;;
5630;SDS011;2837;50.990;7.124;2023-05-09T11:52:15;149.57;;;10.73;;
5630;SDS011;2837;50.990;7.124;2023-05-09T11:54:45;151.37;;;10.97;;
5630;SDS011;2837;50.990;7.124;2023-05-09T11:57:11;149.97;;;10.77;;
5630;SDS011;2837;50.990;7.124;2023-05-09T11:59:41;148.20;;;9.87;;
5630;SDS011;2837;50.990;7.124;2023-05-09T12:02:07;150.67;;;10.43;;
5630;SDS011;2837;50.990;7.124;2023-05-09T12:04:33;147.80;;;9.43;;
5630;SDS011;2837;50.990;7.124;2023-05-09T12:06:59;148.07;;;8.67;;
5630;SDS011;2837;50.990;7.124;2023-05-09T12:09:29;152.17;;;10.27;;
5630;SDS011;2837;50.990;7.124;2023-05-09T12:11:58;153.40;;;10.20;;
5630;SDS011;2837;50.990;7.124;2023-05-09T12:14:37;150.17;;;10.57;;
5630;SDS011;2837;50.990;7.124;2023-05-09T12:17:04;149.17;;;10.30;;
5630;SDS011;2837;50.990;7.124;2023-05-09T12:19:30;148.33;;;9.37;;
5630;SDS011;2837;50.990;7.124;2023-05-09T12:21:57;148.33;;;9.87;;
5630;SDS011;2837;50.990;7.124;2023-05-09T12:24:23;147.27;;;8.77;;
5630;SDS011;2837;50.990;7.124;2023-05-09T12:26:53;147.10;;;7.90;;
5630;SDS011;2837;50.990;7.124;2023-05-09T12:29:23;147.07;;;8.70;;
5630;SDS011;2837;50.990;7.124;2023-05-09T12:31:49;146.23;;;9.00;;
5630;SDS011;2837;50.990;7.124;2023-05-09T12:34:16;147.23;;;9.50;;
5630;SDS011;2837;50.990;7.124;2023-05-09T12:36:43;147.30;;;9.10;;
5630;SDS011;2837;50.990;7.124;2023-05-09T12:39:16;148.50;;;10.10;;
5630;SDS011;2837;50.990;7.124;2023-05-09T12:41:48;148.20;;;9.17;;
5630;SDS011;2837;50.990;7.124;2023-05-09T12:44:22;147.87;;;9.70;;
5630;SDS011;2837;50.990;7.124;2023-05-09T12:46:59;147.80;;;8.50;;
5630;SDS011;2837;50.990;7.124;2023-05-09T12:49:28;147.37;;;9.03;;
5630;SDS011;2837;50.990;7.124;2023-05-09T12:51:56;146.87;;;8.47;;
5630;SDS011;2837;50.990;7.124;2023-05-09T12:54:23;147.33;;;9.07;;
5630;SDS011;2837;50.990;7.124;2023-05-09T12:56:50;146.90;;;8.93;;
5630;SDS011;2837;50.990;7.124;2023-05-09T12:59:20;147.60;;;9.27;;
5630;SDS011;2837;50.990;7.124;2023-05-09T13:01:57;147.40;;;9.07;;
5630;SDS011;2837;50.990;7.124;2023-05-09T13:04:25;147.67;;;8.90;;
5630;SDS011;2837;50.990;7.124;2023-05-09T13:06:52;147.27;;;8.80;;
5630;SDS011;2837;50.990;7.124;2023-05-09T13:09:20;147.67;;;9.30;;
5630;SDS011;2837;50.990;7.124;2023-05-09T13:11:47;147.47;;;9.20;;
5630;SDS011;2837;50.990;7.124;2023-05-09T13:14:14;147.77;;;8.80;;
5630;SDS011;2837;50.990;7.124;2023-05-09T13:16:41;146.93;;;8.60;;
5630;SDS011;2837;50.990;7.124;2023-05-09T13:19:08;147.80;;;9.20;;
5630;SDS011;2837;50.990;7.124;2023-05-09T13:21:33;147.33;;;9.80;;
5630;SDS011;2837;50.990;7.124;2023-05-09T13:23:59;147.37;;;8.90;;
5630;SDS011;2837;50.990;7.124;2023-05-09T13:26:25;148.53;;;9.80;;
5630;SDS011;2837;50.990;7.124;2023-05-09T13:28:51;149.47;;;8.87;;
5630;SDS011;2837;50.990;7.124;2023-05-09T13:31:17;148.03;;;9.70;;
5630;SDS011;2837;50.990;7.124;2023-05-09T13:33:43;147.37;;;8.83;;
5630;SDS011;2837;50.990;7.124;2023-05-09T13:36:09;147.50;;;9.07;;
5630;SDS011;2837;50.990;7.124;2023-05-09T13:38:34;147.97;;;9.67;;
5630;SDS011;2837;50.990;7.124;2023-05-09T13:41:08;147.63;;;9.13;;
5630;SDS011;2837;50.990;7.124;2023-05-09T13:43:34;148.47;;;9.10;;
5630;SDS011;2837;50.990;7.124;2023-05-09T13:46:00;148.80;;;9.10;;
5630;SDS011;2837;50.990;7.124;2023-05-09T13:48:26;148.03;;;9.63;;
5630;SDS011;2837;50.990;7.124;2023-05-09T13:50:52;147.60;;;9.23;;
5630;SDS011;2837;50.990;7.124;2023-05-09T13:53:18;147.53;;;9.60;;
5630;SDS011;2837;50.990;7.124;2023-05-09T13:55:43;147.10;;;8.80;;
5630;SDS011;2837;50.990;7.124;2023-05-09T13:58:10;148.83;;;9.57;;
5630;SDS011;2837;50.990;7.124;2023-05-09T14:00:36;147.90;;;9.30;;
5630;SDS011;2837;50.990;7.124;2023-05-09T14:03:02;147.47;;;9.10;;
5630;SDS011;2837;50.990;7.124;2023-05-09T14:05:29;148.07;;;9.93;;
5630;SDS011;2837;50.990;7.124;2023-05-09T14:07:56;147.00;;;8.90;;
5630;SDS011;2837;50.990;7.124;2023-05-09T14:10:21;149.27;;;9.80;;
5630;SDS011;2837;50.990;7.124;2023-05-09T14:12:49;147.47;;;9.30;;
5630;SDS011;2837;50.990;7.124;2023-05-09T14:15:16;148.03;;;8.87;;
5630;SDS011;2837;50.990;7.124;2023-05-09T14:17:42;148.07;;;9.10;;
5630;SDS011;2837;50.990;7.124;2023-05-09T14:20:07;148.60;;;9.47;;
5630;SDS011;2837;50.990;7.124;2023-05-09T14:22:33;148.07;;;9.53;;
5630;SDS011;2837;50.990;7.124;2023-05-09T14:24:59;147.47;;;9.00;;
5630;SDS011;2837;50.990;7.124;2023-05-09T14:27:24;147.50;;;9.50;;
5630;SDS011;2837;50.990;7.124;2023-05-09T14:29:50;149.67;;;9.63;;
5630;SDS011;2837;50.990;7.124;2023-05-09T14:32:15;149.57;;;9.30;;
5630;SDS011;2837;50.990;7.124;2023-05-09T14:34:41;148.07;;;9.97;;
5630;SDS011;2837;50.990;7.124;2023-05-09T14:37:07;147.70;;;9.07;;
5630;SDS011;2837;50.990;7.124;2023-05-09T14:39:40;147.87;;;9.23;;
5630;SDS011;2837;50.990;7.124;2023-05-09T14:42:07;148.27;;;9.13;;
5630;SDS011;2837;50.990;7.124;2023-05-09T14:44:39;149.77;;;9.43;;
5630;SDS011;2837;50.990;7.124;2023-05-09T14:47:06;149.83;;;9.40;;
5630;SDS011;2837;50.990;7.124;2023-05-09T14:49:32;149.33;;;9.80;;
5630;SDS011;2837;50.990;7.124;2023-05-09T14:51:57;149.80;;;9.87;;
5630;SDS011;2837;50.990;7.124;2023-05-09T14:54:23;150.87;;;9.97;;
5630;SDS011;2837;50.990;7.124;2023-05-09T14:56:49;152.90;;;12.97;;
5630;SDS011;2837;50.990;7.124;2023-05-09T14:59:14;155.30;;;13.57;;
5630;SDS011;2837;50.990;7.124;2023-05-09T15:01:40;155.93;;;14.07;;
5630;SDS011;2837;50.990;7.124;2023-05-09T15:04:06;152.97;;;12.13;;
5630;SDS011;2837;50.990;7.124;2023-05-09T15:06:31;151.87;;;11.60;;
5630;SDS011;2837;50.990;7.124;2023-05-09T15:08:57;154.40;;;11.20;;
5630;SDS011;2837;50.990;7.124;2023-05-09T15:11:23;155.40;;;12.77;;
5630;SDS011;2837;50.990;7.124;2023-05-09T15:13:49;156.27;;;13.10;;
5630;SDS011;2837;50.990;7.124;2023-05-09T15:16:16;153.37;;;12.00;;
5630;SDS011;2837;50.990;7.124;2023-05-09T15:18:42;158.40;;;13.07;;
5630;SDS011;2837;50.990;7.124;2023-05-09T15:21:09;151.93;;;10.77;;
5630;SDS011;2837;50.990;7.124;2023-05-09T15:23:36;153.07;;;11.93;;
5630;SDS011;2837;50.990;7.124;2023-05-09T15:26:02;155.07;;;12.70;;
5630;SDS011;2837;50.990;7.124;2023-05-09T15:28:27;152.67;;;11.67;;
5630;SDS011;2837;50.990;7.124;2023-05-09T15:30:53;154.40;;;12.57;;
5630;SDS011;2837;50.990;7.124;2023-05-09T15:33:19;154.50;;;12.17;;
5630;SDS011;2837;50.990;7.124;2023-05-09T15:35:44;154.40;;;12.37;;
5630;SDS011;2837;50.990;7.124;2023-05-09T15:38:10;153.17;;;12.10;;
5630;SDS011;2837;50.990;7.124;2023-05-09T15:40:37;153.87;;;12.93;;
5630;SDS011;2837;50.990;7.124;2023-05-09T15:43:04;159.87;;;12.43;;
5630;SDS011;2837;50.990;7.124;2023-05-09T15:45:30;154.40;;;12.77;;
5630;SDS011;2837;50.990;7.124;2023-05-09T15:47:55;154.57;;;12.77;;
5630;SDS011;2837;50.990;7.124;2023-05-09T15:50:21;154.70;;;12.07;;
5630;SDS011;2837;50.990;7.124;2023-05-09T15:52:47;154.40;;;12.43;;
5630;SDS011;2837;50.990;7.124;2023-05-09T15:55:12;154.03;;;12.47;;
5630;SDS011;2837;50.990;7.124;2023-05-09T15:57:38;154.40;;;12.30;;
5630;SDS011;2837;50.990;7.124;2023-05-09T16:00:04;155.53;;;12.83;;
5630;SDS011;2837;50.990;7.124;2023-05-09T16:02:30;153.37;;;13.00;;
5630;SDS011;2837;50.990;7.124;2023-05-09T16:04:55;153.87;;;12.67;;
5630;SDS011;2837;50.990;7.124;2023-05-09T16:07:21;155.20;;;12.73;;
5630;SDS011;2837;50.990;7.124;2023-05-09T16:09:47;155.13;;;12.67;;
5630;SDS011;2837;50.990;7.124;2023-05-09T16:12:13;153.90;;;13.00;;
5630;SDS011;2837;50.990;7.124;2023-05-09T16:14:38;154.30;;;12.40;;
5630;SDS011;2837;50.990;7.124;2023-05-09T16:17:04;154.30;;;12.60;;
5630;SDS011;2837;50.990;7.124;2023-05-09T16:19:30;152.10;;;11.67;;
5630;SDS011;2837;50.990;7.124;2023-05-09T16:21:56;157.70;;;12.30;;
5630;SDS011;2837;50.990;7.124;2023-05-09T16:24:21;153.47;;;12.07;;
5630;SDS011;2837;50.990;7.124;2023-05-09T16:26:47;154.17;;;13.50;;
5630;SDS011;2837;50.990;7.124;2023-05-09T16:29:12;155.40;;;12.07;;
5630;SDS011;2837;50.990;7.124;2023-05-09T16:31:38;155.73;;;13.40;;
5630;SDS011;2837;50.990;7.124;2023-05-09T16:34:03;158.20;;;12.80;;
5630;SDS011;2837;50.990;7.124;2023-05-09T16:36:29;154.03;;;12.83;;
5630;SDS011;2837;50.990;7.124;2023-05-09T16:38:57;154.87;;;12.73;;
5630;SDS011;2837;50.990;7.124;2023-05-09T16:41:22;154.10;;;13.07;;
5630;SDS011;2837;50.990;7.124;2023-05-09T16:43:48;153.87;;;12.90;;
5630;SDS011;2837;50.990;7.124;2023-05-09T16:46:14;155.63;;;13.60;;
5630;SDS011;2837;50.990;7.124;2023-05-09T16:48:39;155.87;;;12.27;;
5630;SDS011;2837;50.990;7.124;2023-05-09T16:51:05;153.97;;;12.30;;
5630;SDS011;2837;50.990;7.124;2023-05-09T16:53:30;152.97;;;12.37;;
5630;SDS011;2837;50.990;7.124;2023-05-09T16:55:56;152.03;;;11.57;;
5630;SDS011;2837;50.990;7.124;2023-05-09T16:58:22;156.07;;;13.00;;
5630;SDS011;2837;50.990;7.124;2023-05-09T17:00:49;153.60;;;12.67;;
5630;SDS011;2837;50.990;7.124;2023-05-09T17:03:14;155.10;;;12.67;;
5630;SDS011;2837;50.990;7.124;2023-05-09T17:05:40;153.77;;;12.40;;
5630;SDS011;2837;50.990;7.124;2023-05-09T17:08:05;155.30;;;13.93;;
5630;SDS011;2837;50.990;7.124;2023-05-09T17:10:31;153.50;;;12.10;;
5630;SDS011;2837;50.990;7.124;2023-05-09T17:12:57;154.53;;;12.83;;
5630;SDS011;2837;50.990;7.124;2023-05-09T17:15:22;155.27;;;12.97;;
5630;SDS011;2837;50.990;7.124;2023-05-09T17:17:48;154.67;;;13.23;;
5630;SDS011;2837;50.990;7.124;2023-05-09T17:20:14;154.27;;;12.47;;
5630;SDS011;2837;50.990;7.124;2023-05-09T17:22:39;154.13;;;12.00;;
5630;SDS011;2837;50.990;7.124;2023-05-09T17:25:05;156.97;;;12.80;;
5630;SDS011;2837;50.990;7.124;2023-05-09T17:27:31;158.80;;;13.23;;
5630;SDS011;2837;50.990;7.124;2023-05-09T17:29:56;155.30;;;12.40;;
5630;SDS011;2837;50.990;7.124;2023-05-09T17:32:22;154.00;;;12.23;;
5630;SDS011;2837;50.990;7.124;2023-05-09T17:34:48;154.67;;;12.93;;
5630;SDS011;2837;50.990;7.124;2023-05-09T17:37:13;154.17;;;12.80;;
5630;SDS011;2837;50.990;7.124;2023-05-09T17:39:39;157.73;;;13.03;;
5630;SDS011;2837;50.990;7.124;2023-05-09T17:42:06;154.37;;;12.73;;
5630;SDS011;2837;50.990;7.124;2023-05-09T17:44:32;153.07;;;12.33;;
5630;SDS011;2837;50.990;7.124;2023-05-09T17:46:58;154.80;;;12.60;;
5630;SDS011;2837;50.990;7.124;2023-05-09T17:49:24;154.47;;;12.23;;
5630;SDS011;2837;50.990;7.124;2023-05-09T17:51:51;153.80;;;12.67;;
5630;SDS011;2837;50.990;7.124;2023-05-09T17:54:17;154.23;;;12.97;;
5630;SDS011;2837;50.990;7.124;2023-05-09T17:56:43;152.73;;;11.40;;
5630;SDS011;2837;50.990;7.124;2023-05-09T17:59:15;155.17;;;12.77;;
5630;SDS011;2837;50.990;7.124;2023-05-09T18:01:41;154.90;;;13.27;;
5630;SDS011;2837;50.990;7.124;2023-05-09T18:04:06;157.10;;;12.93;;
5630;SDS011;2837;50.990;7.124;2023-05-09T18:06:32;152.97;;;12.30;;
5630;SDS011;2837;50.990;7.124;2023-05-09T18:08:58;154.00;;;12.17;;
5630;SDS011;2837;50.990;7.124;2023-05-09T18:11:23;154.57;;;13.27;;
5630;SDS011;2837;50.990;7.124;2023-05-09T18:13:50;153.77;;;12.23;;
5630;SDS011;2837;50.990;7.124;2023-05-09T18:16:15;154.17;;;12.40;;
5630;SDS011;2837;50.990;7.124;2023-05-09T18:18:41;151.93;;;12.27;;
5630;SDS011;2837;50.990;7.124;2023-05-09T18:21:08;155.30;;;12.10;;
5630;SDS011;2837;50.990;7.124;2023-05-09T18:23:34;152.67;;;11.27;;
5630;SDS011;2837;50.990;7.124;2023-05-09T18:26:01;152.97;;;12.20;;
5630;SDS011;2837;50.990;7.124;2023-05-09T18:28:27;154.50;;;13.07;;
5630;SDS011;2837;50.990;7.124;2023-05-09T18:30:53;153.27;;;12.07;;
5630;SDS011;2837;50.990;7.124;2023-05-09T18:33:20;153.53;;;11.70;;
5630;SDS011;2837;50.990;7.124;2023-05-09T18:35:46;153.57;;;12.17;;
5630;SDS011;2837;50.990;7.124;2023-05-09T18:38:12;154.27;;;12.77;;
5630;SDS011;2837;50.990;7.124;2023-05-09T18:40:38;154.00;;;12.37;;
5630;SDS011;2837;50.990;7.124;2023-05-09T18:43:03;153.47;;;12.30;;
5630;SDS011;2837;50.990;7.124;2023-05-09T18:45:30;152.37;;;11.77;;
5630;SDS011;2837;50.990;7.124;2023-05-09T18:47:56;152.87;;;11.53;;
5630;SDS011;2837;50.990;7.124;2023-05-09T18:50:22;152.97;;;11.57;;
5630;SDS011;2837;50.990;7.124;2023-05-09T18:52:48;153.37;;;12.03;;
5630;SDS011;2837;50.990;7.124;2023-05-09T18:55:13;152.47;;;11.50;;
5630;SDS011;2837;50.990;7.124;2023-05-09T18:57:39;154.10;;;12.90;;
5630;SDS011;2837;50.990;7.124;2023-05-09T19:00:05;155.40;;;12.00;;
5630;SDS011;2837;50.990;7.124;2023-05-09T19:02:31;154.27;;;12.13;;
5630;SDS011;2837;50.990;7.124;2023-05-09T19:04:56;153.80;;;11.97;;
5630;SDS011;2837;50.990;7.124;2023-05-09T19:07:24;153.03;;;11.97;;
5630;SDS011;2837;50.990;7.124;2023-05-09T19:09:50;152.70;;;11.50;;
5630;SDS011;2837;50.990;7.124;2023-05-09T19:12:15;151.67;;;10.47;;
5630;SDS011;2837;50.990;7.124;2023-05-09T19:14:41;152.10;;;10.80;;
5630;SDS011;2837;50.990;7.124;2023-05-09T19:17:07;152.03;;;11.13;;
5630;SDS011;2837;50.990;7.124;2023-05-09T19:19:33;152.47;;;11.13;;
5630;SDS011;2837;50.990;7.124;2023-05-09T19:21:59;153.37;;;11.30;;
5630;SDS011;2837;50.990;7.124;2023-05-09T19:24:25;151.80;;;10.97;;
5630;SDS011;2837;50.990;7.124;2023-05-09T19:26:51;151.47;;;10.60;;
5630;SDS011;2837;50.990;7.124;2023-05-09T19:29:16;150.40;;;9.73;;
5630;SDS011;2837;50.990;7.124;2023-05-09T19:31:42;151.50;;;10.20;;
5630;SDS011;2837;50.990;7.124;2023-05-09T19:34:07;152.30;;;10.30;;
5630;SDS011;2837;50.990;7.124;2023-05-09T19:36:33;150.47;;;9.10;;
5630;SDS011;2837;50.990;7.124;2023-05-09T19:38:59;151.87;;;9.63;;
5630;SDS011;2837;50.990;7.124;2023-05-09T19:41:24;151.00;;;10.27;;
5630;SDS011;2837;50.990;7.124;2023-05-09T19:43:50;150.70;;;10.03;;
5630;SDS011;2837;50.990;7.124;2023-05-09T19:46:16;151.20;;;9.43;;
5630;SDS011;2837;50.990;7.124;2023-05-09T19:48:43;152.17;;;8.87;;
5630;SDS011;2837;50.990;7.124;2023-05-09T19:51:08;150.27;;;8.93;;
5630;SDS011;2837;50.990;7.124;2023-05-09T19:53:36;150.80;;;8.73;;
5630;SDS011;2837;50.990;7.124;2023-05-09T19:56:02;150.37;;;8.80;;
5630;SDS011;2837;50.990;7.124;2023-05-09T19:58:28;151.77;;;8.93;;
5630;SDS011;2837;50.990;7.124;2023-05-09T20:00:53;149.90;;;8.30;;